sensor_id;sensor_type;location;lat;lon;timestamp;P1;durP1;ratioP1;P2;durP2;ratioP2
2854;SDS011;1435;49.472;10.940;2023-06-22T00:03:27;8.47;;;7.77;;
2854;SDS011;1435;49.472;10.940;2023-06-22T00:08:28;9.37;;;8.20;;
2854;SDS011;1435;49.472;10.940;2023-06-22T00:13:31;8.80;;;7.73;;
2854;SDS011;1435;49.472;10.940;2023-06-22T00:18:33;7.93;;;7.17;;
2854;SDS011;1435;49.472;10.940;2023-06-22T00:23:35;7.93;;;7.13;;
2854;SDS011;1435;49.472;10.940;2023-06-22T00:28:38;8.60;;;7.70;;
2854;SDS011;1435;49.472;10.940;2023-06-22T00:33:39;9.00;;;8.20;;
2854;SDS011;1435;49.472;10.940;2023-06-22T00:38:41;9.10;;;8.27;;
2854;SDS011;1435;49.472;10.940;2023-06-22T00:43:44;8.77;;;7.87;;
2854;SDS011;1435;49.472;10.940;2023-06-22T00:48:46;8.43;;;7.70;;
2854;SDS011;1435;49.472;10.940;2023-06-22T00:53:48;9.13;;;8.23;;
2854;SDS011;1435;49.472;10.940;2023-06-22T00:58:52;9.47;;;8.43;;
2854;SDS011;1435;49.472;10.940;2023-06-22T01:03:54;9.83;;;8.83;;
2854;SDS011;1435;49.472;10.940;2023-06-22T01:09:00;9.87;;;8.43;;
2854;SDS011;1435;49.472;10.940;2023-06-22T01:14:11;8.63;;;7.73;;
2854;SDS011;1435;49.472;10.940;2023-06-22T01:19:24;9.30;;;8.40;;
2854;SDS011;1435;49.472;10.940;2023-06-22T01:24:41;13.47;;;8.93;;
2854;SDS011;1435;49.472;10.940;2023-06-22T01:29:55;9.23;;;8.40;;
2854;SDS011;1435;49.472;10.940;2023-06-22T01:35:01;4.53;;;4.23;;
2854;SDS011;1435;49.472;10.940;2023-06-22T01:40:06;5.87;;;5.30;;
2854;SDS011;1435;49.472;10.940;2023-06-22T01:45:10;6.80;;;6.20;;
2854;SDS011;1435;49.472;10.940;2023-06-22T01:50:13;8.83;;;8.07;;
2854;SDS011;1435;49.472;10.940;2023-06-22T01:55:15;9.53;;;7.87;;
2854;SDS011;1435;49.472;10.940;2023-06-22T02:00:19;8.23;;;7.53;;
2854;SDS011;1435;49.472;10.940;2023-06-22T02:05:24;8.27;;;7.57;;
2854;SDS011;1435;49.472;10.940;2023-06-22T02:10:29;10.57;;;9.47;;
2854;SDS011;1435;49.472;10.940;2023-06-22T02:15:34;10.73;;;9.10;;
2854;SDS011;1435;49.472;10.940;2023-06-22T02:20:37;9.80;;;8.80;;
2854;SDS011;1435;49.472;10.940;2023-06-22T02:25:39;12.30;;;9.50;;
2854;SDS011;1435;49.472;10.940;2023-06-22T02:30:45;10.17;;;9.00;;
2854;SDS011;1435;49.472;10.940;2023-06-22T02:35:47;9.53;;;8.53;;
2854;SDS011;1435;49.472;10.940;2023-06-22T02:40:49;11.87;;;10.73;;
2854;SDS011;1435;49.472;10.940;2023-06-22T02:45:52;10.27;;;9.10;;
2854;SDS011;1435;49.472;10.940;2023-06-22T02:50:54;11.67;;;10.53;;
2854;SDS011;1435;49.472;10.940;2023-06-22T02:55:56;12.90;;;11.60;;
2854;SDS011;1435;49.472;10.940;2023-06-22T03:00:59;12.50;;;11.30;;
2854;SDS011;1435;49.472;10.940;2023-06-22T03:06:04;12.47;;;10.77;;
2854;SDS011;1435;49.472;10.940;2023-06-22T03:11:06;12.77;;;11.17;;
2854;SDS011;1435;49.472;10.940;2023-06-22T03:16:09;13.47;;;11.33;;
2854;SDS011;1435;49.472;10.940;2023-06-22T03:21:11;12.57;;;11.17;;
2854;SDS011;1435;49.472;10.940;2023-06-22T03:26:16;12.10;;;10.77;;
2854;SDS011;1435;49.472;10.940;2023-06-22T03:31:20;13.03;;;11.73;;
2854;SDS011;1435;49.472;10.940;2023-06-22T03:36:22;13.80;;;10.60;;
2854;SDS011;1435;49.472;10.940;2023-06-22T03:41:24;19.87;;;12.03;;
2854;SDS011;1435;49.472;10.940;2023-06-22T03:46:27;12.70;;;11.43;;
2854;SDS011;1435;49.472;10.940;2023-06-22T03:51:29;12.60;;;10.87;;
2854;SDS011;1435;49.472;10.940;2023-06-22T03:56:31;14.77;;;11.67;;
2854;SDS011;1435;49.472;10.940;2023-06-22T04:01:34;12.03;;;10.83;;
2854;SDS011;1435;49.472;10.940;2023-06-22T04:06:36;12.73;;;11.53;;
2854;SDS011;1435;49.472;10.940;2023-06-22T04:11:38;11.70;;;10.47;;
2854;SDS011;1435;49.472;10.940;2023-06-22T04:16:41;12.13;;;10.43;;
2854;SDS011;1435;49.472;10.940;2023-06-22T04:21:43;13.23;;;11.77;;
2854;SDS011;1435;49.472;10.940;2023-06-22T04:26:45;13.70;;;12.30;;
2854;SDS011;1435;49.472;10.940;2023-06-22T04:31:48;13.50;;;12.20;;
2854;SDS011;1435;49.472;10.940;2023-06-22T04:36:50;13.57;;;12.37;;
2854;SDS011;1435;49.472;10.940;2023-06-22T04:41:52;12.40;;;11.23;;
2854;SDS011;1435;49.472;10.940;2023-06-22T04:47:01;12.67;;;11.40;;
2854;SDS011;1435;49.472;10.940;2023-06-22T04:52:09;14.10;;;11.77;;
2854;SDS011;1435;49.472;10.940;2023-06-22T04:57:12;12.40;;;11.10;;
2854;SDS011;1435;49.472;10.940;2023-06-22T05:02:15;12.13;;;10.77;;
2854;SDS011;1435;49.472;10.940;2023-06-22T05:07:17;11.57;;;10.53;;
2854;SDS011;1435;49.472;10.940;2023-06-22T05:12:18;11.07;;;10.00;;
2854;SDS011;1435;49.472;10.940;2023-06-22T05:17:21;11.67;;;10.43;;
2854;SDS011;1435;49.472;10.940;2023-06-22T05:22:23;11.00;;;10.00;;
2854;SDS011;1435;49.472;10.940;2023-06-22T05:27:25;13.50;;;9.93;;
2854;SDS011;1435;49.472;10.940;2023-06-22T05:32:28;11.30;;;10.20;;
2854;SDS011;1435;49.472;10.940;2023-06-22T05:37:29;12.00;;;10.80;;
2854;SDS011;1435;49.472;10.940;2023-06-22T05:42:31;13.57;;;10.37;;
2854;SDS011;1435;49.472;10.940;2023-06-22T05:47:34;11.50;;;10.27;;
2854;SDS011;1435;49.472;10.940;2023-06-22T05:52:36;11.30;;;10.20;;
2854;SDS011;1435;49.472;10.940;2023-06-22T05:57:38;10.40;;;9.23;;
2854;SDS011;1435;49.472;10.940;2023-06-22T06:02:41;11.63;;;10.50;;
2854;SDS011;1435;49.472;10.940;2023-06-22T06:07:44;9.97;;;9.00;;
2854;SDS011;1435;49.472;10.940;2023-06-22T06:12:46;10.67;;;8.77;;
2854;SDS011;1435;49.472;10.940;2023-06-22T06:17:50;9.90;;;8.90;;
2854;SDS011;1435;49.472;10.940;2023-06-22T06:22:52;11.07;;;9.60;;
2854;SDS011;1435;49.472;10.940;2023-06-22T06:27:54;9.47;;;8.47;;
2854;SDS011;1435;49.472;10.940;2023-06-22T06:32:57;9.47;;;8.57;;
2854;SDS011;1435;49.472;10.940;2023-06-22T06:37:59;12.33;;;9.33;;
2854;SDS011;1435;49.472;10.940;2023-06-22T06:43:02;10.30;;;9.30;;
2854;SDS011;1435;49.472;10.940;2023-06-22T06:48:05;10.93;;;8.63;;
2854;SDS011;1435;49.472;10.940;2023-06-22T06:53:07;9.80;;;8.87;;
2854;SDS011;1435;49.472;10.940;2023-06-22T06:58:08;9.97;;;9.00;;
2854;SDS011;1435;49.472;10.940;2023-06-22T07:03:14;9.97;;;8.97;;
2854;SDS011;1435;49.472;10.940;2023-06-22T07:08:16;9.43;;;8.60;;
2854;SDS011;1435;49.472;10.940;2023-06-22T07:13:17;10.20;;;8.77;;
2854;SDS011;1435;49.472;10.940;2023-06-22T07:18:20;10.27;;;9.27;;
2854;SDS011;1435;49.472;10.940;2023-06-22T07:23:22;10.87;;;9.03;;
2854;SDS011;1435;49.472;10.940;2023-06-22T07:28:24;9.40;;;8.60;;
2854;SDS011;1435;49.472;10.940;2023-06-22T07:33:27;10.67;;;8.93;;
2854;SDS011;1435;49.472;10.940;2023-06-22T07:38:29;10.23;;;8.70;;
2854;SDS011;1435;49.472;10.940;2023-06-22T07:43:31;12.40;;;8.37;;
2854;SDS011;1435;49.472;10.940;2023-06-22T07:48:37;9.33;;;8.43;;
2854;SDS011;1435;49.472;10.940;2023-06-22T07:53:40;8.03;;;7.23;;
2854;SDS011;1435;49.472;10.940;2023-06-22T07:58:43;7.77;;;7.10;;
2854;SDS011;1435;49.472;10.940;2023-06-22T08:03:46;7.77;;;6.93;;
2854;SDS011;1435;49.472;10.940;2023-06-22T08:08:48;8.53;;;7.53;;
2854;SDS011;1435;49.472;10.940;2023-06-22T08:13:52;7.50;;;6.90;;
2854;SDS011;1435;49.472;10.940;2023-06-22T08:18:57;8.43;;;6.90;;
2854;SDS011;1435;49.472;10.940;2023-06-22T08:23:58;6.93;;;6.23;;
2854;SDS011;1435;49.472;10.940;2023-06-22T08:29:00;6.70;;;6.10;;
2854;SDS011;1435;49.472;10.940;2023-06-22T08:34:03;6.80;;;5.47;;
2854;SDS011;1435;49.472;10.940;2023-06-22T08:39:05;7.40;;;6.80;;
2854;SDS011;1435;49.472;10.940;2023-06-22T08:44:06;6.90;;;6.07;;
2854;SDS011;1435;49.472;10.940;2023-06-22T08:49:09;7.30;;;6.03;;
2854;SDS011;1435;49.472;10.940;2023-06-22T08:54:11;7.60;;;6.23;;
2854;SDS011;1435;49.472;10.940;2023-06-22T08:59:13;7.17;;;6.30;;
2854;SDS011;1435;49.472;10.940;2023-06-22T09:04:17;6.07;;;5.47;;
2854;SDS011;1435;49.472;10.940;2023-06-22T09:09:22;9.20;;;5.80;;
2854;SDS011;1435;49.472;10.940;2023-06-22T09:14:23;9.07;;;5.67;;
2854;SDS011;1435;49.472;10.940;2023-06-22T09:19:26;7.87;;;5.80;;
2854;SDS011;1435;49.472;10.940;2023-06-22T09:24:28;6.50;;;5.87;;
2854;SDS011;1435;49.472;10.940;2023-06-22T09:29:30;8.23;;;6.30;;
2854;SDS011;1435;49.472;10.940;2023-06-22T09:34:35;6.60;;;5.70;;
2854;SDS011;1435;49.472;10.940;2023-06-22T09:39:36;11.07;;;6.00;;
2854;SDS011;1435;49.472;10.940;2023-06-22T09:44:38;6.83;;;5.67;;
2854;SDS011;1435;49.472;10.940;2023-06-22T09:49:41;8.67;;;5.63;;
2854;SDS011;1435;49.472;10.940;2023-06-22T09:54:43;7.70;;;5.40;;
2854;SDS011;1435;49.472;10.940;2023-06-22T09:59:45;7.47;;;5.87;;
2854;SDS011;1435;49.472;10.940;2023-06-22T10:04:48;6.10;;;5.53;;
2854;SDS011;1435;49.472;10.940;2023-06-22T10:09:50;10.07;;;5.47;;
2854;SDS011;1435;49.472;10.940;2023-06-22T10:14:51;8.90;;;5.63;;
2854;SDS011;1435;49.472;10.940;2023-06-22T10:19:54;11.60;;;6.40;;
2854;SDS011;1435;49.472;10.940;2023-06-22T10:24:56;5.50;;;4.93;;
2854;SDS011;1435;49.472;10.940;2023-06-22T10:29:58;9.67;;;6.17;;
2854;SDS011;1435;49.472;10.940;2023-06-22T10:35:01;11.63;;;6.93;;
2854;SDS011;1435;49.472;10.940;2023-06-22T10:40:03;7.53;;;6.83;;
2854;SDS011;1435;49.472;10.940;2023-06-22T10:45:08;8.10;;;7.27;;
2854;SDS011;1435;49.472;10.940;2023-06-22T10:50:11;7.13;;;6.47;;
2854;SDS011;1435;49.472;10.940;2023-06-22T10:55:14;6.27;;;5.77;;
2854;SDS011;1435;49.472;10.940;2023-06-22T11:00:16;6.97;;;6.07;;
2854;SDS011;1435;49.472;10.940;2023-06-22T11:05:19;8.63;;;6.40;;
2854;SDS011;1435;49.472;10.940;2023-06-22T11:10:21;7.77;;;6.20;;
2854;SDS011;1435;49.472;10.940;2023-06-22T11:15:23;8.50;;;6.77;;
2854;SDS011;1435;49.472;10.940;2023-06-22T11:20:26;8.30;;;6.90;;
2854;SDS011;1435;49.472;10.940;2023-06-22T11:25:27;8.27;;;6.67;;
2854;SDS011;1435;49.472;10.940;2023-06-22T11:30:29;12.20;;;6.47;;
2854;SDS011;1435;49.472;10.940;2023-06-22T11:35:33;7.80;;;6.57;;
2854;SDS011;1435;49.472;10.940;2023-06-22T11:40:34;9.07;;;7.00;;
2854;SDS011;1435;49.472;10.940;2023-06-22T11:45:36;8.50;;;6.50;;
2854;SDS011;1435;49.472;10.940;2023-06-22T11:50:39;7.80;;;5.90;;
2854;SDS011;1435;49.472;10.940;2023-06-22T11:55:41;6.70;;;6.10;;
2854;SDS011;1435;49.472;10.940;2023-06-22T12:00:43;6.27;;;5.63;;
2854;SDS011;1435;49.472;10.940;2023-06-22T12:05:46;10.20;;;5.83;;
2854;SDS011;1435;49.472;10.940;2023-06-22T12:10:49;9.60;;;6.67;;
2854;SDS011;1435;49.472;10.940;2023-06-22T12:15:51;7.83;;;5.80;;
2854;SDS011;1435;49.472;10.940;2023-06-22T12:20:55;9.43;;;7.10;;
2854;SDS011;1435;49.472;10.940;2023-06-22T12:25:56;8.20;;;6.30;;
2854;SDS011;1435;49.472;10.940;2023-06-22T12:30:59;8.97;;;7.00;;
2854;SDS011;1435;49.472;10.940;2023-06-22T12:36:02;8.83;;;6.63;;
2854;SDS011;1435;49.472;10.940;2023-06-22T12:41:05;6.40;;;5.77;;
2854;SDS011;1435;49.472;10.940;2023-06-22T12:46:07;7.47;;;5.83;;
2854;SDS011;1435;49.472;10.940;2023-06-22T12:51:10;11.83;;;6.60;;
2854;SDS011;1435;49.472;10.940;2023-06-22T12:56:12;8.20;;;6.33;;
2854;SDS011;1435;49.472;10.940;2023-06-22T13:01:13;8.40;;;5.87;;
2854;SDS011;1435;49.472;10.940;2023-06-22T13:06:16;9.20;;;6.90;;
2854;SDS011;1435;49.472;10.940;2023-06-22T13:11:18;6.53;;;5.47;;
2854;SDS011;1435;49.472;10.940;2023-06-22T13:16:20;8.90;;;6.90;;
2854;SDS011;1435;49.472;10.940;2023-06-22T13:21:23;9.87;;;7.00;;
2854;SDS011;1435;49.472;10.940;2023-06-22T13:26:24;9.10;;;6.90;;
2854;SDS011;1435;49.472;10.940;2023-06-22T13:31:28;8.47;;;6.50;;
2854;SDS011;1435;49.472;10.940;2023-06-22T13:36:31;8.00;;;6.67;;
2854;SDS011;1435;49.472;10.940;2023-06-22T13:41:33;8.00;;;6.00;;
2854;SDS011;1435;49.472;10.940;2023-06-22T13:46:35;12.27;;;6.80;;
2854;SDS011;1435;49.472;10.940;2023-06-22T13:51:38;6.10;;;5.40;;
2854;SDS011;1435;49.472;10.940;2023-06-22T13:56:40;9.87;;;6.10;;
2854;SDS011;1435;49.472;10.940;2023-06-22T14:01:41;7.07;;;5.87;;
2854;SDS011;1435;49.472;10.940;2023-06-22T14:06:44;5.80;;;5.20;;
2854;SDS011;1435;49.472;10.940;2023-06-22T14:11:46;6.57;;;5.97;;
2854;SDS011;1435;49.472;10.940;2023-06-22T14:16:48;11.93;;;6.13;;
2854;SDS011;1435;49.472;10.940;2023-06-22T14:21:51;9.83;;;6.50;;
2854;SDS011;1435;49.472;10.940;2023-06-22T14:26:53;8.77;;;6.70;;
2854;SDS011;1435;49.472;10.940;2023-06-22T14:31:55;8.07;;;5.33;;
2854;SDS011;1435;49.472;10.940;2023-06-22T14:36:58;10.47;;;6.13;;
2854;SDS011;1435;49.472;10.940;2023-06-22T14:42:00;8.13;;;6.73;;
2854;SDS011;1435;49.472;10.940;2023-06-22T14:47:03;7.10;;;5.53;;
2854;SDS011;1435;49.472;10.940;2023-06-22T14:52:07;9.23;;;6.20;;
2854;SDS011;1435;49.472;10.940;2023-06-22T14:57:08;13.43;;;6.70;;
2854;SDS011;1435;49.472;10.940;2023-06-22T15:02:10;10.50;;;5.63;;
2854;SDS011;1435;49.472;10.940;2023-06-22T15:07:13;9.30;;;6.47;;
2854;SDS011;1435;49.472;10.940;2023-06-22T15:12:15;7.73;;;6.30;;
2854;SDS011;1435;49.472;10.940;2023-06-22T15:17:17;6.37;;;5.30;;
2854;SDS011;1435;49.472;10.940;2023-06-22T15:22:20;10.97;;;6.37;;
2854;SDS011;1435;49.472;10.940;2023-06-22T15:27:22;8.00;;;5.80;;
2854;SDS011;1435;49.472;10.940;2023-06-22T15:32:25;8.27;;;5.90;;
2854;SDS011;1435;49.472;10.940;2023-06-22T15:37:30;10.40;;;5.77;;
2854;SDS011;1435;49.472;10.940;2023-06-22T15:42:31;9.90;;;6.00;;
2854;SDS011;1435;49.472;10.940;2023-06-22T15:47:34;7.57;;;5.73;;
2854;SDS011;1435;49.472;10.940;2023-06-22T15:52:38;9.43;;;5.87;;
2854;SDS011;1435;49.472;10.940;2023-06-22T15:57:40;10.83;;;6.00;;
2854;SDS011;1435;49.472;10.940;2023-06-22T16:02:46;8.47;;;5.93;;
2854;SDS011;1435;49.472;10.940;2023-06-22T16:07:49;10.87;;;5.70;;
2854;SDS011;1435;49.472;10.940;2023-06-22T16:12:51;12.70;;;5.27;;
2854;SDS011;1435;49.472;10.940;2023-06-22T16:17:54;9.60;;;5.43;;
2854;SDS011;1435;49.472;10.940;2023-06-22T16:22:57;8.93;;;5.50;;
2854;SDS011;1435;49.472;10.940;2023-06-22T16:27:59;9.73;;;6.80;;
2854;SDS011;1435;49.472;10.940;2023-06-22T16:33:02;9.20;;;5.77;;
2854;SDS011;1435;49.472;10.940;2023-06-22T16:38:05;7.90;;;5.70;;
2854;SDS011;1435;49.472;10.940;2023-06-22T16:43:06;13.87;;;7.37;;
2854;SDS011;1435;49.472;10.940;2023-06-22T16:48:08;10.20;;;6.47;;
2854;SDS011;1435;49.472;10.940;2023-06-22T16:53:11;7.70;;;5.07;;
2854;SDS011;1435;49.472;10.940;2023-06-22T16:58:13;9.00;;;5.83;;
2854;SDS011;1435;49.472;10.940;2023-06-22T17:03:20;10.63;;;5.70;;
2854;SDS011;1435;49.472;10.940;2023-06-22T17:08:27;12.30;;;5.90;;
2854;SDS011;1435;49.472;10.940;2023-06-22T17:13:33;9.00;;;6.20;;
2854;SDS011;1435;49.472;10.940;2023-06-22T17:18:36;12.10;;;7.70;;
2854;SDS011;1435;49.472;10.940;2023-06-22T17:23:41;8.73;;;5.80;;
2854;SDS011;1435;49.472;10.940;2023-06-22T17:28:47;6.67;;;5.57;;
2854;SDS011;1435;49.472;10.940;2023-06-22T17:33:49;8.73;;;6.23;;
2854;SDS011;1435;49.472;10.940;2023-06-22T17:38:52;21.43;;;7.10;;
2854;SDS011;1435;49.472;10.940;2023-06-22T17:44:00;8.07;;;6.17;;
2854;SDS011;1435;49.472;10.940;2023-06-22T17:49:06;7.53;;;6.00;;
2854;SDS011;1435;49.472;10.940;2023-06-22T17:54:10;12.27;;;7.20;;
2854;SDS011;1435;49.472;10.940;2023-06-22T17:59:12;10.80;;;5.97;;
2854;SDS011;1435;49.472;10.940;2023-06-22T18:04:14;7.90;;;6.90;;
2854;SDS011;1435;49.472;10.940;2023-06-22T18:09:18;13.10;;;6.80;;
2854;SDS011;1435;49.472;10.940;2023-06-22T18:14:20;8.33;;;6.73;;
2854;SDS011;1435;49.472;10.940;2023-06-22T18:19:22;10.90;;;7.30;;
2854;SDS011;1435;49.472;10.940;2023-06-22T18:24:26;11.87;;;6.17;;
2854;SDS011;1435;49.472;10.940;2023-06-22T18:29:28;14.77;;;6.40;;
2854;SDS011;1435;49.472;10.940;2023-06-22T18:34:30;12.00;;;6.00;;
2854;SDS011;1435;49.472;10.940;2023-06-22T18:39:34;9.47;;;5.43;;
2854;SDS011;1435;49.472;10.940;2023-06-22T18:44:39;6.80;;;4.83;;
2854;SDS011;1435;49.472;10.940;2023-06-22T18:49:45;8.13;;;5.70;;
2854;SDS011;1435;49.472;10.940;2023-06-22T18:54:49;11.80;;;6.83;;
2854;SDS011;1435;49.472;10.940;2023-06-22T18:59:54;10.83;;;5.63;;
2854;SDS011;1435;49.472;10.940;2023-06-22T19:05:07;11.80;;;5.77;;
2854;SDS011;1435;49.472;10.940;2023-06-22T19:10:23;9.63;;;5.17;;
2854;SDS011;1435;49.472;10.940;2023-06-22T19:15:29;8.57;;;5.13;;
2854;SDS011;1435;49.472;10.940;2023-06-22T19:20:33;11.30;;;4.90;;
2854;SDS011;1435;49.472;10.940;2023-06-22T19:25:36;9.87;;;4.73;;
2854;SDS011;1435;49.472;10.940;2023-06-22T19:30:46;11.13;;;4.93;;
2854;SDS011;1435;49.472;10.940;2023-06-22T19:35:48;10.67;;;4.30;;
2854;SDS011;1435;49.472;10.940;2023-06-22T19:40:52;11.03;;;6.13;;
2854;SDS011;1435;49.472;10.940;2023-06-22T19:45:55;11.80;;;4.90;;
2854;SDS011;1435;49.472;10.940;2023-06-22T19:51:01;11.87;;;5.33;;
2854;SDS011;1435;49.472;10.940;2023-06-22T19:56:06;9.37;;;5.13;;
2854;SDS011;1435;49.472;10.940;2023-06-22T20:01:08;12.70;;;5.90;;
2854;SDS011;1435;49.472;10.940;2023-06-22T20:06:10;9.83;;;4.70;;
2854;SDS011;1435;49.472;10.940;2023-06-22T20:11:14;11.43;;;5.80;;
2854;SDS011;1435;49.472;10.940;2023-06-22T20:16:25;9.63;;;4.83;;
2854;SDS011;1435;49.472;10.940;2023-06-22T20:21:27;10.13;;;5.50;;
2854;SDS011;1435;49.472;10.940;2023-06-22T20:26:37;7.30;;;5.00;;
2854;SDS011;1435;49.472;10.940;2023-06-22T20:31:40;9.80;;;5.07;;
2854;SDS011;1435;49.472;10.940;2023-06-22T20:36:41;10.20;;;5.43;;
2854;SDS011;1435;49.472;10.940;2023-06-22T20:41:44;8.20;;;4.63;;
2854;SDS011;1435;49.472;10.940;2023-06-22T20:46:46;8.30;;;5.63;;
2854;SDS011;1435;49.472;10.940;2023-06-22T20:51:48;12.23;;;6.33;;
2854;SDS011;1435;49.472;10.940;2023-06-22T20:56:51;10.47;;;6.17;;
2854;SDS011;1435;49.472;10.940;2023-06-22T21:01:53;9.63;;;6.00;;
2854;SDS011;1435;49.472;10.940;2023-06-22T21:06:56;9.60;;;6.20;;
2854;SDS011;1435;49.472;10.940;2023-06-22T21:11:59;9.47;;;6.00;;
2854;SDS011;1435;49.472;10.940;2023-06-22T21:17:01;11.30;;;7.17;;
2854;SDS011;1435;49.472;10.940;2023-06-22T21:22:03;8.90;;;6.13;;
2854;SDS011;1435;49.472;10.940;2023-06-22T21:27:06;11.50;;;6.50;;
2854;SDS011;1435;49.472;10.940;2023-06-22T21:32:08;10.37;;;5.20;;
2854;SDS011;1435;49.472;10.940;2023-06-22T21:37:10;8.57;;;5.67;;
2854;SDS011;1435;49.472;10.940;2023-06-22T21:42:13;9.60;;;6.00;;
2854;SDS011;1435;49.472;10.940;2023-06-22T21:47:15;7.43;;;5.43;;
2854;SDS011;1435;49.472;10.940;2023-06-22T21:52:17;12.30;;;5.33;;
2854;SDS011;1435;49.472;10.940;2023-06-22T21:57:20;9.13;;;6.00;;
2854;SDS011;1435;49.472;10.940;2023-06-22T22:02:26;11.27;;;6.27;;
2854;SDS011;1435;49.472;10.940;2023-06-22T22:07:28;14.23;;;6.07;;
2854;SDS011;1435;49.472;10.940;2023-06-22T22:12:31;7.57;;;5.60;;
2854;SDS011;1435;49.472;10.940;2023-06-22T22:17:34;11.80;;;6.13;;
2854;SDS011;1435;49.472;10.940;2023-06-22T22:22:37;11.10;;;6.40;;
2854;SDS011;1435;49.472;10.940;2023-06-22T22:27:40;10.20;;;6.07;;
2854;SDS011;1435;49.472;10.940;2023-06-22T22:32:41;10.23;;;6.27;;
2854;SDS011;1435;49.472;10.940;2023-06-22T22:37:44;10.37;;;5.53;;
2854;SDS011;1435;49.472;10.940;2023-06-22T22:42:47;7.33;;;5.50;;
2854;SDS011;1435;49.472;10.940;2023-06-22T22:47:49;10.23;;;6.33;;
2854;SDS011;1435;49.472;10.940;2023-06-22T22:52:51;6.13;;;4.80;;
2854;SDS011;1435;49.472;10.940;2023-06-22T22:57:54;11.30;;;7.50;;
2854;SDS011;1435;49.472;10.940;2023-06-22T23:02:55;12.80;;;7.00;;
2854;SDS011;1435;49.472;10.940;2023-06-22T23:07:58;17.17;;;6.07;;
2854;SDS011;1435;49.472;10.940;2023-06-22T23:13:02;9.80;;;6.10;;
2854;SDS011;1435;49.472;10.940;2023-06-22T23:18:03;8.80;;;5.63;;
2854;SDS011;1435;49.472;10.940;2023-06-22T23:23:08;6.87;;;5.17;;
2854;SDS011;1435;49.472;10.940;2023-06-22T23:28:11;11.10;;;5.40;;
2854;SDS011;1435;49.472;10.940;2023-06-22T23:33:13;7.30;;;4.80;;
2854;SDS011;1435;49.472;10.940;2023-06-22T23:38:15;7.03;;;4.63;;
2854;SDS011;1435;49.472;10.940;2023-06-22T23:43:18;8.83;;;4.30;;
2854;SDS011;1435;49.472;10.940;2023-06-22T23:48:20;7.37;;;6.10;;
2854;SDS011;1435;49.472;10.940;2023-06-22T23:53:22;6.73;;;4.30;;
2854;SDS011;1435;49.472;10.940;2023-06-22T23:58:25;5.40;;;3.50;;
